createdAt,value
2018-08-19T00:00:44.037Z,6.63
2018-08-19T00:03:13.604Z,7.83
2018-08-19T00:05:41.818Z,8.10
2018-08-19T00:08:09.153Z,7.67
2018-08-19T00:10:44.878Z,8.17
2018-08-19T00:13:12.944Z,8.90
2018-08-19T00:15:40.656Z,9.17
2018-08-19T00:18:09.074Z,7.63
2018-08-19T00:20:36.362Z,9.10
2018-08-19T00:23:03.687Z,8.60
2018-08-19T00:25:31.745Z,8.37
2018-08-19T00:27:59.066Z,9.17
2018-08-19T00:30:26.372Z,8.90
2018-08-19T00:32:53.628Z,8.10
2018-08-19T00:35:21.125Z,8.80
2018-08-19T00:37:48.380Z,9.00
2018-08-19T00:40:15.646Z,8.40
2018-08-19T00:42:43.142Z,8.70
2018-08-19T00:45:10.446Z,7.80
2018-08-19T00:47:37.729Z,9.23
2018-08-19T00:50:05.102Z,9.80
2018-08-19T00:52:32.355Z,9.00
2018-08-19T00:54:59.646Z,8.80
2018-08-19T00:57:26.917Z,9.73
2018-08-19T00:59:54.161Z,8.30
2018-08-19T01:02:21.473Z,9.17
2018-08-19T01:04:49.305Z,9.90
2018-08-19T01:07:16.586Z,8.93
2018-08-19T01:09:43.907Z,9.23
2018-08-19T01:12:11.177Z,8.80
2018-08-19T01:14:38.426Z,9.83
2018-08-19T01:17:05.784Z,9.27
2018-08-19T01:19:33.050Z,10.90
2018-08-19T01:22:00.337Z,9.57
2018-08-19T01:24:27.614Z,8.90
2018-08-19T01:26:54.916Z,9.80
2018-08-19T01:29:33.906Z,9.27
2018-08-19T01:32:06.607Z,9.83
2018-08-19T01:34:33.974Z,10.40
2018-08-19T01:37:01.267Z,10.77
2018-08-19T01:39:28.537Z,9.67
2018-08-19T01:41:55.786Z,10.00
2018-08-19T01:44:23.069Z,9.20
2018-08-19T01:46:50.944Z,9.77
2018-08-19T01:49:18.276Z,10.33
2018-08-19T01:51:45.870Z,8.93
2018-08-19T01:54:19.370Z,9.60
2018-08-19T01:56:46.808Z,10.17
2018-08-19T01:59:14.077Z,9.70
2018-08-19T02:01:46.169Z,9.83
2018-08-19T02:04:13.717Z,9.33
2018-08-19T02:06:41.896Z,9.30
2018-08-19T02:09:10.863Z,10.10
2018-08-19T02:11:38.179Z,10.17
2018-08-19T02:14:05.582Z,10.50
2018-08-19T02:16:32.862Z,10.67
2018-08-19T02:19:00.129Z,10.20
2018-08-19T02:21:27.403Z,9.77
2018-08-19T02:23:54.696Z,10.33
2018-08-19T02:26:32.721Z,9.97
2018-08-19T02:29:00.252Z,10.33
2018-08-19T02:31:27.554Z,9.57
2018-08-19T02:33:54.828Z,10.50
2018-08-19T02:36:22.102Z,10.00
2018-08-19T02:38:49.478Z,10.00
2018-08-19T02:41:16.870Z,9.65
2018-08-19T02:43:59.936Z,9.58
2018-08-19T02:46:27.317Z,10.38
2018-08-19T02:48:54.594Z,10.30
2018-08-19T02:51:21.910Z,9.40
2018-08-19T02:53:50.311Z,10.63
2018-08-19T02:56:18.374Z,10.10
2018-08-19T02:58:46.539Z,9.65
2018-08-19T03:01:15.049Z,10.60
2018-08-19T03:03:42.353Z,10.98
2018-08-19T03:06:09.735Z,10.27
2018-08-19T03:08:57.917Z,11.57
2018-08-19T03:11:25.230Z,10.48
2018-08-19T03:13:52.534Z,10.82
2018-08-19T03:16:19.874Z,10.30
2018-08-19T03:18:49.101Z,10.78
2018-08-19T03:21:16.384Z,11.63
2018-08-19T03:23:43.698Z,10.25
2018-08-19T03:26:11.014Z,11.28
2018-08-19T03:28:38.285Z,10.98
2018-08-19T03:31:05.600Z,10.90
2018-08-19T03:33:32.883Z,11.50
2018-08-19T03:36:00.162Z,10.72
2018-08-19T03:38:27.982Z,10.70
2018-08-19T03:40:55.695Z,11.03
2018-08-19T03:43:23.029Z,11.38
2018-08-19T03:45:50.319Z,11.05
2018-08-19T03:48:19.850Z,10.28
2018-08-19T03:50:47.175Z,11.40
2018-08-19T03:53:14.809Z,12.43
2018-08-19T03:55:42.077Z,11.85
2018-08-19T03:58:10.544Z,12.00
2018-08-19T04:00:42.602Z,10.90
2018-08-19T04:03:16.112Z,11.35
2018-08-19T04:05:45.418Z,11.50
2018-08-19T04:08:13.769Z,11.97
2018-08-19T04:10:42.090Z,11.50
2018-08-19T04:13:15.364Z,11.75
2018-08-19T04:15:42.709Z,12.40
2018-08-19T04:18:09.983Z,11.95
2018-08-19T04:20:37.312Z,10.60
2018-08-19T04:23:04.869Z,12.05
2018-08-19T04:25:35.056Z,12.40
2018-08-19T04:28:03.668Z,11.25
2018-08-19T04:30:31.014Z,12.25
2018-08-19T04:32:58.287Z,11.85
2018-08-19T04:35:25.574Z,11.85
2018-08-19T04:37:52.876Z,12.70
2018-08-19T04:40:20.129Z,12.47
2018-08-19T04:42:47.409Z,12.00
2018-08-19T04:45:14.706Z,11.70
2018-08-19T04:47:41.975Z,12.50
2018-08-19T04:50:09.281Z,11.90
2018-08-19T04:52:36.571Z,11.50
2018-08-19T04:55:03.965Z,11.53
2018-08-19T04:57:31.396Z,11.23
2018-08-19T04:59:58.725Z,12.60
2018-08-19T05:02:26.015Z,11.60
2018-08-19T05:04:53.271Z,12.10
2018-08-19T05:07:20.571Z,13.17
2018-08-19T05:09:48.007Z,13.33
2018-08-19T05:12:15.409Z,12.60
2018-08-19T05:14:42.950Z,13.03
2018-08-19T05:17:10.236Z,13.37
2018-08-19T05:19:37.562Z,13.40
2018-08-19T05:22:10.334Z,13.93
2018-08-19T05:24:37.614Z,11.33
2018-08-19T05:27:06.554Z,13.13
2018-08-19T05:29:33.852Z,12.73
2018-08-19T05:32:01.115Z,12.67
2018-08-19T05:34:32.409Z,12.53
2018-08-19T05:36:59.889Z,12.50
2018-08-19T05:39:27.424Z,13.03
2018-08-19T05:42:01.568Z,13.17
2018-08-19T05:44:30.406Z,13.30
2018-08-19T05:47:02.036Z,12.63
2018-08-19T05:49:29.441Z,12.40
2018-08-19T05:51:56.785Z,12.67
2018-08-19T05:54:24.434Z,12.10
2018-08-19T05:56:55.538Z,12.57
2018-08-19T05:59:22.839Z,12.10
2018-08-19T06:01:50.233Z,13.63
2018-08-19T06:04:17.596Z,11.20
2018-08-19T06:07:48.042Z,12.30
2018-08-19T06:10:15.295Z,11.10
2018-08-19T06:12:42.617Z,13.13
2018-08-19T06:15:10.006Z,13.23
2018-08-19T06:17:37.315Z,11.97
2018-08-19T06:20:04.802Z,11.90
2018-08-19T06:22:39.279Z,11.67
2018-08-19T06:25:06.614Z,11.30
2018-08-19T06:27:43.453Z,11.20
2018-08-19T06:30:10.826Z,11.33
2018-08-19T06:32:38.122Z,11.33
2018-08-19T06:35:05.852Z,11.17
2018-08-19T06:37:33.166Z,11.03
2018-08-19T06:40:00.479Z,10.97
2018-08-19T06:42:27.742Z,10.83
2018-08-19T06:44:55.039Z,11.13
2018-08-19T06:47:22.340Z,11.07
2018-08-19T06:49:53.221Z,10.60
2018-08-19T06:52:21.271Z,10.23
2018-08-19T06:54:49.514Z,9.73
2018-08-19T06:57:17.703Z,10.33
2018-08-19T06:59:46.293Z,10.37
2018-08-19T07:02:13.633Z,11.40
2018-08-19T07:04:42.410Z,10.70
2018-08-19T07:07:11.562Z,11.03
2018-08-19T07:09:39.344Z,10.40
2018-08-19T07:12:15.053Z,11.83
2018-08-19T07:14:42.687Z,10.90
2018-08-19T07:17:10.048Z,12.40
2018-08-19T07:19:37.862Z,11.80
2018-08-19T07:22:06.283Z,11.43
2018-08-19T07:24:34.707Z,14.60
2018-08-19T07:27:02.013Z,13.10
2018-08-19T07:29:30.799Z,15.00
2018-08-19T07:31:58.430Z,15.60
2018-08-19T07:34:25.752Z,14.43
2018-08-19T07:36:54.221Z,15.57
2018-08-19T07:39:21.655Z,15.63
2018-08-19T07:41:49.022Z,14.87
2018-08-19T07:44:16.297Z,13.97
2018-08-19T07:46:43.651Z,16.43
2018-08-19T07:49:10.955Z,15.37
2018-08-19T07:51:38.699Z,15.20
2018-08-19T07:54:06.079Z,16.27
2018-08-19T07:56:33.507Z,14.90
2018-08-19T07:59:06.606Z,14.50
2018-08-19T08:01:34.680Z,13.20
2018-08-19T08:04:01.989Z,13.80
2018-08-19T08:06:29.447Z,13.20
2018-08-19T08:08:58.277Z,13.83
2018-08-19T08:11:27.453Z,13.70
2018-08-19T08:13:58.262Z,13.33
2018-08-19T08:16:26.655Z,12.30
2018-08-19T08:18:54.566Z,12.47
2018-08-19T08:21:23.535Z,12.20
2018-08-19T08:23:52.865Z,11.30
2018-08-19T08:26:21.947Z,12.00
2018-08-19T08:28:56.000Z,10.80
2018-08-19T08:31:25.654Z,12.00
2018-08-19T08:33:54.179Z,12.80
2018-08-19T08:36:23.664Z,13.10
2018-08-19T08:38:53.181Z,12.17
2018-08-19T08:41:23.594Z,10.27
2018-08-19T08:43:52.713Z,10.83
2018-08-19T08:46:20.482Z,11.53
2018-08-19T08:48:51.702Z,9.80
2018-08-19T08:51:21.113Z,11.57
2018-08-19T08:53:49.599Z,10.87
2018-08-19T08:56:17.788Z,10.27
2018-08-19T08:58:45.835Z,10.90
2018-08-19T09:01:15.518Z,11.60
2018-08-19T09:03:44.465Z,9.33
2018-08-19T09:06:19.737Z,9.87
2018-08-19T09:08:49.987Z,11.30
2018-08-19T09:11:17.733Z,11.20
2018-08-19T09:13:47.216Z,11.33
2018-08-19T09:16:17.385Z,11.47
2018-08-19T09:18:46.711Z,10.20
2018-08-19T09:21:16.365Z,9.93
2018-08-19T09:23:43.925Z,10.40
2018-08-19T09:26:12.746Z,9.40
2018-08-19T09:28:41.932Z,9.27
2018-08-19T09:31:09.605Z,9.33
2018-08-19T09:33:39.344Z,10.47
2018-08-19T09:36:09.085Z,9.17
2018-08-19T09:38:38.635Z,9.70
2018-08-19T09:41:07.706Z,10.27
2018-08-19T09:43:35.310Z,9.60
2018-08-19T09:46:04.209Z,10.80
2018-08-19T09:48:33.702Z,10.30
2018-08-19T09:51:07.416Z,9.73
2018-08-19T09:53:36.677Z,9.33
2018-08-19T09:56:11.941Z,9.20
2018-08-19T09:58:42.526Z,10.03
2018-08-19T10:01:15.168Z,9.17
2018-08-19T10:03:44.840Z,9.60
2018-08-19T10:06:13.861Z,9.00
2018-08-19T10:08:43.043Z,8.50
2018-08-19T10:11:12.074Z,8.13
2018-08-19T10:13:41.708Z,8.83
2018-08-19T10:16:09.172Z,8.93
2018-08-19T10:18:37.691Z,7.90
2018-08-19T10:21:10.475Z,8.43
2018-08-19T10:23:40.042Z,8.00
2018-08-19T10:26:07.502Z,8.80
2018-08-19T10:28:49.787Z,8.83
2018-08-19T10:31:21.316Z,8.07
2018-08-19T10:33:51.959Z,7.40
2018-08-19T10:36:19.305Z,7.30
2018-08-19T10:38:46.674Z,8.63
2018-08-19T10:41:13.973Z,8.13
2018-08-19T10:43:41.386Z,7.57
2018-08-19T10:46:08.715Z,8.60
2018-08-19T10:48:36.039Z,7.00
2018-08-19T10:51:03.543Z,8.23
2018-08-19T10:53:30.880Z,7.47
2018-08-19T10:55:58.953Z,7.07
2018-08-19T10:58:26.260Z,7.70
2018-08-19T11:00:53.597Z,8.20
2018-08-19T11:03:21.165Z,7.83
2018-08-19T11:05:49.960Z,8.20
2018-08-19T11:08:17.272Z,6.87
2018-08-19T11:10:44.675Z,7.57
2018-08-19T11:13:12.006Z,8.17
2018-08-19T11:15:40.369Z,8.10
2018-08-19T11:20:55.044Z,7.40
2018-08-19T11:23:23.741Z,7.10
2018-08-19T11:25:51.460Z,6.90
2018-08-19T11:28:24.348Z,8.27
2018-08-19T11:30:51.779Z,8.57
2018-08-19T11:33:24.857Z,7.10
2018-08-19T11:35:52.203Z,7.27
2018-08-19T11:38:19.743Z,8.50
2018-08-19T11:40:46.996Z,7.83
2018-08-19T11:43:14.268Z,8.03
2018-08-19T11:45:41.533Z,7.43
2018-08-19T11:48:08.826Z,7.83
2018-08-19T11:50:36.126Z,7.97
2018-08-19T11:53:03.426Z,7.40
2018-08-19T11:55:31.737Z,7.57
2018-08-19T11:57:58.995Z,7.70
2018-08-19T12:00:30.636Z,7.80
2018-08-19T12:02:58.395Z,7.33
2018-08-19T12:05:25.685Z,7.90
2018-08-19T12:07:57.568Z,8.00
2018-08-19T12:10:24.855Z,7.70
2018-08-19T12:12:52.151Z,7.70
2018-08-19T12:15:19.409Z,8.50
2018-08-19T12:17:46.750Z,7.40
2018-08-19T12:20:16.818Z,7.77
2018-08-19T12:22:45.300Z,7.00
2018-08-19T12:25:12.661Z,6.80
2018-08-19T12:27:40.778Z,6.87
2018-08-19T12:30:12.378Z,7.53
2018-08-19T12:32:39.618Z,7.47
2018-08-19T12:35:07.515Z,8.00
2018-08-19T12:37:34.989Z,7.60
2018-08-19T12:40:02.305Z,7.57
2018-08-19T12:42:30.470Z,6.93
2018-08-19T12:45:03.150Z,7.40
2018-08-19T12:47:30.768Z,7.83
2018-08-19T12:49:59.311Z,6.63
2018-08-19T12:52:27.858Z,6.67
2018-08-19T12:55:00.803Z,6.67
2018-08-19T12:57:28.096Z,7.00
2018-08-19T12:59:56.807Z,6.70
2018-08-19T13:02:24.474Z,7.97
2018-08-19T13:04:52.040Z,7.53
2018-08-19T13:07:19.306Z,7.13
2018-08-19T13:09:48.913Z,8.03
2018-08-19T13:12:16.439Z,7.37
2018-08-19T13:14:43.685Z,8.07
2018-08-19T13:17:11.039Z,7.23
2018-08-19T13:19:38.305Z,7.00
2018-08-19T13:22:05.574Z,7.23
2018-08-19T13:24:37.136Z,6.80
2018-08-19T13:27:04.866Z,6.77
2018-08-19T13:29:32.596Z,7.40
2018-08-19T13:31:59.918Z,8.17
2018-08-19T13:34:27.891Z,7.53
2018-08-19T13:36:55.628Z,8.00
2018-08-19T13:39:22.945Z,8.13
2018-08-19T13:41:50.349Z,8.43
2018-08-19T13:44:17.665Z,7.27
2018-08-19T13:46:44.970Z,7.00
2018-08-19T13:49:12.223Z,7.40
2018-08-19T13:51:39.553Z,8.37
2018-08-19T13:54:06.807Z,7.60
2018-08-19T13:56:34.126Z,8.33
2018-08-19T13:59:01.399Z,6.83
2018-08-19T14:01:28.707Z,7.90
2018-08-19T14:03:56.037Z,8.03
2018-08-19T14:06:23.333Z,8.60
2018-08-19T14:08:50.682Z,7.97
2018-08-19T14:11:17.958Z,8.23
2018-08-19T14:13:45.229Z,8.30
2018-08-19T14:16:12.537Z,9.03
2018-08-19T14:18:39.878Z,8.23
2018-08-19T14:21:07.147Z,10.43
2018-08-19T14:23:34.474Z,8.77
2018-08-19T14:26:01.753Z,8.90
2018-08-19T14:28:29.036Z,10.27
2018-08-19T14:30:56.329Z,7.67
2018-08-19T14:33:23.690Z,7.90
2018-08-19T14:35:50.935Z,8.93
2018-08-19T14:38:18.218Z,8.13
2018-08-19T14:40:45.517Z,7.70
2018-08-19T14:43:12.806Z,7.77
2018-08-19T14:45:40.119Z,7.80
2018-08-19T14:48:07.475Z,7.83
2018-08-19T14:50:34.771Z,8.93
2018-08-19T14:53:02.072Z,7.97
2018-08-19T14:55:29.346Z,7.50
2018-08-19T14:57:56.597Z,8.07
2018-08-19T15:00:24.677Z,8.30
2018-08-19T15:02:51.987Z,9.00
2018-08-19T15:05:20.229Z,8.57
2018-08-19T15:07:47.801Z,8.20
2018-08-19T15:10:15.890Z,8.30
2018-08-19T15:12:43.155Z,7.87
2018-08-19T15:15:10.450Z,8.80
2018-08-19T15:17:38.229Z,9.10
2018-08-19T15:20:05.510Z,8.57
2018-08-19T15:22:32.839Z,8.73
2018-08-19T15:25:00.109Z,8.80
2018-08-19T15:27:27.370Z,8.50
2018-08-19T15:29:55.104Z,8.63
2018-08-19T15:32:23.153Z,8.30
2018-08-19T15:34:50.127Z,9.37
2018-08-19T15:37:17.473Z,9.90
2018-08-19T15:39:44.752Z,8.50
2018-08-19T15:42:12.050Z,8.90
2018-08-19T15:44:39.362Z,8.90
2018-08-19T15:47:06.638Z,9.03
2018-08-19T15:49:33.947Z,9.13
2018-08-19T15:52:01.230Z,9.60
2018-08-19T15:54:28.551Z,9.03
2018-08-19T15:56:58.355Z,8.40
2018-08-19T15:59:25.663Z,9.37
2018-08-19T16:01:52.952Z,9.47
2018-08-19T16:04:21.252Z,9.73
2018-08-19T16:06:49.965Z,10.00
2018-08-19T16:09:19.321Z,9.30
2018-08-19T16:11:47.210Z,10.00
2018-08-19T16:14:20.525Z,9.70
2018-08-19T16:16:47.863Z,9.60
2018-08-19T16:19:15.212Z,10.10
2018-08-19T16:21:44.485Z,10.10
2018-08-19T16:24:11.777Z,9.77
2018-08-19T16:26:39.073Z,9.00
2018-08-19T16:29:06.479Z,10.50
2018-08-19T16:31:34.010Z,9.33
2018-08-19T16:34:01.390Z,9.80
2018-08-19T16:36:28.685Z,9.20
2018-08-19T16:38:56.241Z,9.57
2018-08-19T16:41:23.609Z,10.23
2018-08-19T16:43:50.946Z,10.20
2018-08-19T16:46:18.205Z,9.50
2018-08-19T16:48:45.472Z,10.17
2018-08-19T16:51:12.777Z,10.37
2018-08-19T16:53:40.052Z,9.30
2018-08-19T16:56:07.416Z,9.17
2018-08-19T16:58:34.716Z,9.70
2018-08-19T17:01:01.981Z,9.90
2018-08-19T17:03:31.990Z,9.30
2018-08-19T17:05:59.341Z,10.57
2018-08-19T17:08:26.648Z,9.80
2018-08-19T17:10:53.921Z,9.47
2018-08-19T17:13:21.237Z,10.87
2018-08-19T17:15:48.529Z,9.90
2018-08-19T17:18:15.805Z,10.20
2018-08-19T17:20:43.350Z,9.23
2018-08-19T17:23:10.639Z,10.23
2018-08-19T17:25:37.988Z,10.07
2018-08-19T17:28:10.373Z,11.73
2018-08-19T17:30:37.773Z,10.30
2018-08-19T17:33:08.300Z,11.10
2018-08-19T17:35:35.539Z,10.87
2018-08-19T17:38:02.817Z,11.57
2018-08-19T17:40:30.248Z,10.30
2018-08-19T17:42:57.542Z,10.80
2018-08-19T17:45:24.905Z,11.30
2018-08-19T17:47:52.277Z,11.43
2018-08-19T17:50:26.565Z,11.73
2018-08-19T17:52:54.908Z,12.07
2018-08-19T17:55:22.733Z,12.37
2018-08-19T17:57:50.085Z,10.77
2018-08-19T18:00:17.371Z,11.00
2018-08-19T18:02:44.934Z,11.13
2018-08-19T18:05:12.199Z,10.23
2018-08-19T18:07:39.479Z,11.67
2018-08-19T18:10:08.969Z,10.53
2018-08-19T18:12:36.254Z,11.50
2018-08-19T18:15:03.600Z,11.83
2018-08-19T18:17:30.884Z,11.47
2018-08-19T18:19:58.164Z,12.20
2018-08-19T18:22:25.478Z,12.57
2018-08-19T18:24:57.840Z,11.17
2018-08-19T18:27:25.226Z,11.43
2018-08-19T18:29:52.555Z,10.80
2018-08-19T18:32:20.660Z,11.50
2018-08-19T18:34:47.962Z,11.70
2018-08-19T18:37:15.245Z,11.57
2018-08-19T18:39:42.918Z,11.30
2018-08-19T18:42:10.216Z,11.47
2018-08-19T18:44:37.491Z,11.23
2018-08-19T18:47:05.408Z,11.00
2018-08-19T18:49:32.711Z,11.50
2018-08-19T18:52:04.349Z,10.37
2018-08-19T18:54:31.677Z,11.40
2018-08-19T18:57:01.642Z,10.63
2018-08-19T18:59:28.967Z,10.20
2018-08-19T19:02:00.544Z,10.77
2018-08-19T19:04:27.874Z,10.47
2018-08-19T19:06:55.209Z,10.97
2018-08-19T19:09:22.504Z,11.80
2018-08-19T19:11:50.206Z,11.17
2018-08-19T19:14:18.792Z,11.80
2018-08-19T19:16:47.366Z,9.70
2018-08-19T19:19:14.620Z,10.93
2018-08-19T19:21:41.991Z,10.70
2018-08-19T19:24:09.273Z,10.67
2018-08-19T19:26:41.745Z,10.80
2018-08-19T19:29:15.007Z,11.00
2018-08-19T19:31:42.281Z,10.80
2018-08-19T19:34:15.224Z,10.53
2018-08-19T19:36:42.544Z,11.13
2018-08-19T19:39:09.846Z,10.90
2018-08-19T19:41:37.147Z,11.33
2018-08-19T19:44:14.448Z,11.07
2018-08-19T19:46:41.724Z,11.80
2018-08-19T19:49:09.017Z,11.10
2018-08-19T19:51:36.341Z,10.93
2018-08-19T19:54:03.821Z,11.10
2018-08-19T19:56:31.193Z,11.50
2018-08-19T19:58:58.484Z,11.77
2018-08-19T20:01:25.766Z,10.93
2018-08-19T20:03:55.268Z,12.57
2018-08-19T20:06:22.998Z,11.00
2018-08-19T20:08:53.161Z,12.20
2018-08-19T20:11:26.022Z,15.40
2018-08-19T20:13:53.353Z,12.20
2018-08-19T20:16:20.656Z,12.40
2018-08-19T20:18:47.936Z,11.97
2018-08-19T20:21:20.609Z,11.03
2018-08-19T20:23:47.975Z,11.90
2018-08-19T20:26:15.327Z,12.10
2018-08-19T20:28:42.612Z,12.87
2018-08-19T20:31:09.917Z,11.77
2018-08-19T20:33:37.189Z,12.80
2018-08-19T20:36:04.572Z,12.67
2018-08-19T20:38:31.819Z,12.40
2018-08-19T20:40:59.083Z,12.50
2018-08-19T20:43:26.385Z,12.30
2018-08-19T20:45:53.769Z,12.30
2018-08-19T20:48:21.885Z,12.20
2018-08-19T20:50:49.714Z,11.63
2018-08-19T20:53:17.300Z,11.90
2018-08-19T20:55:44.653Z,11.53
2018-08-19T20:58:11.973Z,13.03
2018-08-19T21:00:39.228Z,12.17
2018-08-19T21:03:06.697Z,11.97
2018-08-19T21:05:34.000Z,11.70
2018-08-19T21:08:03.985Z,12.10
2018-08-19T21:10:31.403Z,12.00
2018-08-19T21:12:58.721Z,12.60
2018-08-19T21:15:30.317Z,11.97
2018-08-19T21:17:57.650Z,12.17
2018-08-19T21:20:24.957Z,11.73
2018-08-19T21:22:53.253Z,12.50
2018-08-19T21:25:20.516Z,12.33
2018-08-19T21:27:47.775Z,12.03
2018-08-19T21:30:15.169Z,12.50
2018-08-19T21:32:42.451Z,12.50
2018-08-19T21:35:09.731Z,12.37
2018-08-19T21:37:36.977Z,12.17
2018-08-19T21:40:05.021Z,12.20
2018-08-19T21:42:51.689Z,12.40
2018-08-19T21:45:18.995Z,12.10
2018-08-19T21:47:46.486Z,11.37
2018-08-19T21:50:13.755Z,11.53
2018-08-19T21:52:47.620Z,11.27
2018-08-19T21:55:14.929Z,11.13
2018-08-19T21:57:42.184Z,11.53
2018-08-19T22:00:09.604Z,13.27
2018-08-19T22:02:42.275Z,12.57
2018-08-19T22:05:09.521Z,11.60
2018-08-19T22:07:36.820Z,11.17
2018-08-19T22:10:04.570Z,12.57
2018-08-19T22:12:31.905Z,12.53
2018-08-19T22:14:59.250Z,11.60
2018-08-19T22:17:26.553Z,11.40
2018-08-19T22:19:53.834Z,11.60
2018-08-19T22:22:21.115Z,12.17
2018-08-19T22:24:48.402Z,12.23
2018-08-19T22:27:17.604Z,12.10
2018-08-19T22:29:44.881Z,11.47
2018-08-19T22:32:12.139Z,10.77
2018-08-19T22:34:39.569Z,11.00
2018-08-19T22:37:06.837Z,11.67
2018-08-19T22:39:34.123Z,12.43
2018-08-19T22:42:01.404Z,11.47
2018-08-19T22:44:28.684Z,11.70
2018-08-19T22:46:56.001Z,11.60
2018-08-19T22:49:26.337Z,11.63
2018-08-19T22:51:53.906Z,11.47
2018-08-19T22:54:21.198Z,11.90
2018-08-19T22:56:48.508Z,10.70
2018-08-19T22:59:15.934Z,12.20
2018-08-19T23:01:48.574Z,11.90
2018-08-19T23:04:15.868Z,12.40
2018-08-19T23:06:43.148Z,11.73
2018-08-19T23:09:10.387Z,10.93
2018-08-19T23:11:43.196Z,10.87
2018-08-19T23:14:16.644Z,12.37
2018-08-19T23:16:44.018Z,10.67
2018-08-19T23:19:11.325Z,11.90
2018-08-19T23:21:38.622Z,11.30
2018-08-19T23:24:05.930Z,12.00
2018-08-19T23:26:33.229Z,12.53
2018-08-19T23:29:00.497Z,12.47
2018-08-19T23:31:27.760Z,11.67
2018-08-19T23:33:55.033Z,13.07
2018-08-19T23:36:22.383Z,12.20
2018-08-19T23:38:49.663Z,10.30
2018-08-19T23:41:16.925Z,11.27
2018-08-19T23:43:44.190Z,11.23
2018-08-19T23:46:12.299Z,12.70
2018-08-19T23:48:39.548Z,11.93
2018-08-19T23:51:07.669Z,12.00
2018-08-19T23:53:34.989Z,11.83
2018-08-19T23:56:02.240Z,12.33
2018-08-19T23:58:29.519Z,11.53
